Dacono, Colorado
Current Conditions -  °F | °C
As of 1:35 PM on Thursday 27 Nov 2014 (Local Time) from KEIK Reporting Station
Clear Clear  
Wind Chill: 65°   Ceiling: Unl
Heat Index: 65°   Visibility: 10mi
Dew Point: 14°   Wind: 7mph
Humidity: 14%   Direction: 190°S
Pressure: 30.13"   Gusts: NA
Location:  40.08°N, 104.94°W
Report Text: KEIK 272035Z AUTO 19006KT 10SM CLR 18/M10 A3013 RMK AO2 T01841098
Loading
Personal Weather Stations






























Interactive Weather Map New forecast layout! Learn more

10-Day Weather Forecast

Advertisements
Track Severe Weather on mobile